Terminal Aerodrome Forecast
Issued by NWS Portland, OR

Home | Current Version | Previous Version | Text Only | Print | Product List | Glossary On
Versions: 1 2 3 4 5 6 7 8 9 10 11 12 13 14 15 16 17 18 19 20 21 22 23 24 25 26 27 28 29 30 31 32 33 34 35 36
000
FTUS46 KPQR 030025 AAA
TAFAST
TAF AMD
KAST 030025Z 0300/0324 32012KT P6SM SCT060
     FM030400 08006KT P6SM SKC
     FM031000 08006KT P6SM SCT060 SCT250
     FM032000 35008KT P6SM SCT200=

USA.gov is the U.S. government's official web portal to all federal, state and local government web resources and services.